sensor_id;sensor_type;location;lat;lon;timestamp;P1;durP1;ratioP1;P2;durP2;ratioP2
54679;SDS011;40578;53.178;5.846;2023-04-10T00:01:07;54.80;;;37.67;;
54679;SDS011;40578;53.178;5.846;2023-04-10T00:03:32;56.67;;;37.77;;
54679;SDS011;40578;53.178;5.846;2023-04-10T00:05:58;54.43;;;38.27;;
54679;SDS011;40578;53.178;5.846;2023-04-10T00:08:24;55.20;;;39.07;;
54679;SDS011;40578;53.178;5.846;2023-04-10T00:10:50;54.60;;;37.97;;
54679;SDS011;40578;53.178;5.846;2023-04-10T00:13:18;55.05;;;39.25;;
54679;SDS011;40578;53.178;5.846;2023-04-10T00:15:44;56.03;;;40.63;;
54679;SDS011;40578;53.178;5.846;2023-04-10T00:18:10;55.23;;;39.07;;
54679;SDS011;40578;53.178;5.846;2023-04-10T00:20:36;54.83;;;39.67;;
54679;SDS011;40578;53.178;5.846;2023-04-10T00:23:01;57.97;;;39.40;;
54679;SDS011;40578;53.178;5.846;2023-04-10T00:25:27;54.63;;;38.53;;
54679;SDS011;40578;53.178;5.846;2023-04-10T00:27:53;53.90;;;39.77;;
54679;SDS011;40578;53.178;5.846;2023-04-10T00:30:19;55.87;;;39.93;;
54679;SDS011;40578;53.178;5.846;2023-04-10T00:35:11;56.65;;;40.65;;
54679;SDS011;40578;53.178;5.846;2023-04-10T00:37:37;55.47;;;40.03;;
54679;SDS011;40578;53.178;5.846;2023-04-10T00:40:03;55.63;;;41.23;;
54679;SDS011;40578;53.178;5.846;2023-04-10T00:42:30;61.08;;;42.85;;
54679;SDS011;40578;53.178;5.846;2023-04-10T00:44:56;59.75;;;43.42;;
54679;SDS011;40578;53.178;5.846;2023-04-10T00:47:22;62.03;;;43.93;;
54679;SDS011;40578;53.178;5.846;2023-04-10T00:49:47;64.97;;;43.77;;
54679;SDS011;40578;53.178;5.846;2023-04-10T00:52:13;61.60;;;44.13;;
54679;SDS011;40578;53.178;5.846;2023-04-10T00:54:39;62.53;;;43.07;;
54679;SDS011;40578;53.178;5.846;2023-04-10T00:57:04;63.10;;;43.80;;
54679;SDS011;40578;53.178;5.846;2023-04-10T00:59:31;63.10;;;42.75;;
54679;SDS011;40578;53.178;5.846;2023-04-10T01:01:57;61.92;;;43.35;;
54679;SDS011;40578;53.178;5.846;2023-04-10T01:04:23;62.10;;;43.13;;
54679;SDS011;40578;53.178;5.846;2023-04-10T01:06:52;62.05;;;43.83;;
54679;SDS011;40578;53.178;5.846;2023-04-10T01:15:11;59.08;;;43.58;;
54679;SDS011;40578;53.178;5.846;2023-04-10T01:17:48;61.45;;;43.83;;
54679;SDS011;40578;53.178;5.846;2023-04-10T01:25:48;59.92;;;43.90;;
54679;SDS011;40578;53.178;5.846;2023-04-10T01:28:24;60.47;;;43.20;;
54679;SDS011;40578;53.178;5.846;2023-04-10T01:31:15;64.13;;;45.33;;
54679;SDS011;40578;53.178;5.846;2023-04-10T01:33:57;60.05;;;43.92;;
54679;SDS011;40578;53.178;5.846;2023-04-10T01:36:26;60.95;;;44.85;;
54679;SDS011;40578;53.178;5.846;2023-04-10T01:38:55;59.90;;;43.05;;
54679;SDS011;40578;53.178;5.846;2023-04-10T01:41:22;61.47;;;44.65;;
54679;SDS011;40578;53.178;5.846;2023-04-10T01:43:50;59.80;;;43.58;;
54679;SDS011;40578;53.178;5.846;2023-04-10T01:46:21;62.53;;;44.53;;
54679;SDS011;40578;53.178;5.846;2023-04-10T01:48:48;61.55;;;43.75;;
54679;SDS011;40578;53.178;5.846;2023-04-10T01:51:16;60.42;;;44.78;;
54679;SDS011;40578;53.178;5.846;2023-04-10T01:53:42;60.22;;;43.58;;
54679;SDS011;40578;53.178;5.846;2023-04-10T01:56:10;60.40;;;44.63;;
54679;SDS011;40578;53.178;5.846;2023-04-10T01:58:36;61.75;;;44.45;;
54679;SDS011;40578;53.178;5.846;2023-04-10T02:01:02;63.53;;;45.03;;
54679;SDS011;40578;53.178;5.846;2023-04-10T02:03:28;61.20;;;43.20;;
54679;SDS011;40578;53.178;5.846;2023-04-10T02:08:58;64.03;;;44.47;;
54679;SDS011;40578;53.178;5.846;2023-04-10T02:11:37;60.78;;;42.28;;
54679;SDS011;40578;53.178;5.846;2023-04-10T02:14:09;61.28;;;43.60;;
54679;SDS011;40578;53.178;5.846;2023-04-10T02:16:37;56.90;;;41.63;;
54679;SDS011;40578;53.178;5.846;2023-04-10T02:19:03;59.25;;;43.45;;
54679;SDS011;40578;53.178;5.846;2023-04-10T02:21:31;63.88;;;44.15;;
54679;SDS011;40578;53.178;5.846;2023-04-10T02:23:58;63.20;;;44.60;;
54679;SDS011;40578;53.178;5.846;2023-04-10T02:26:24;59.93;;;43.13;;
54679;SDS011;40578;53.178;5.846;2023-04-10T02:28:49;59.47;;;42.23;;
54679;SDS011;40578;53.178;5.846;2023-04-10T02:31:15;58.40;;;42.63;;
54679;SDS011;40578;53.178;5.846;2023-04-10T02:33:41;59.83;;;42.97;;
54679;SDS011;40578;53.178;5.846;2023-04-10T02:36:07;60.30;;;44.17;;
54679;SDS011;40578;53.178;5.846;2023-04-10T02:38:33;60.53;;;43.05;;
54679;SDS011;40578;53.178;5.846;2023-04-10T02:40:59;62.67;;;44.63;;
54679;SDS011;40578;53.178;5.846;2023-04-10T02:43:25;61.17;;;43.67;;
54679;SDS011;40578;53.178;5.846;2023-04-10T02:45:50;62.13;;;43.93;;
54679;SDS011;40578;53.178;5.846;2023-04-10T02:48:16;60.33;;;43.80;;
54679;SDS011;40578;53.178;5.846;2023-04-10T02:50:42;63.37;;;44.40;;
54679;SDS011;40578;53.178;5.846;2023-04-10T02:53:12;66.30;;;44.72;;
54679;SDS011;40578;53.178;5.846;2023-04-10T02:55:38;61.63;;;45.00;;
54679;SDS011;40578;53.178;5.846;2023-04-10T02:58:04;61.33;;;44.00;;
54679;SDS011;40578;53.178;5.846;2023-04-10T03:00:29;65.07;;;43.37;;
54679;SDS011;40578;53.178;5.846;2023-04-10T03:02:55;59.10;;;43.93;;
54679;SDS011;40578;53.178;5.846;2023-04-10T03:05:21;61.27;;;45.13;;
54679;SDS011;40578;53.178;5.846;2023-04-10T03:07:46;66.30;;;46.30;;
54679;SDS011;40578;53.178;5.846;2023-04-10T03:10:12;66.00;;;47.13;;
54679;SDS011;40578;53.178;5.846;2023-04-10T03:12:38;64.20;;;45.10;;
54679;SDS011;40578;53.178;5.846;2023-04-10T03:15:03;65.23;;;46.90;;
54679;SDS011;40578;53.178;5.846;2023-04-10T03:17:30;61.10;;;45.05;;
54679;SDS011;40578;53.178;5.846;2023-04-10T03:19:55;63.80;;;45.93;;
54679;SDS011;40578;53.178;5.846;2023-04-10T03:22:21;66.63;;;45.80;;
54679;SDS011;40578;53.178;5.846;2023-04-10T03:24:47;62.07;;;45.33;;
54679;SDS011;40578;53.178;5.846;2023-04-10T03:27:13;66.87;;;46.53;;
54679;SDS011;40578;53.178;5.846;2023-04-10T03:29:40;65.47;;;45.42;;
54679;SDS011;40578;53.178;5.846;2023-04-10T03:32:05;65.67;;;46.43;;
54679;SDS011;40578;53.178;5.846;2023-04-10T03:34:32;62.87;;;46.20;;
54679;SDS011;40578;53.178;5.846;2023-04-10T03:36:58;63.85;;;46.22;;
54679;SDS011;40578;53.178;5.846;2023-04-10T03:39:23;62.47;;;44.53;;
54679;SDS011;40578;53.178;5.846;2023-04-10T03:41:49;63.27;;;44.63;;
54679;SDS011;40578;53.178;5.846;2023-04-10T03:44:14;65.00;;;46.03;;
54679;SDS011;40578;53.178;5.846;2023-04-10T03:46:40;58.57;;;43.97;;
54679;SDS011;40578;53.178;5.846;2023-04-10T03:49:06;62.67;;;45.30;;
54679;SDS011;40578;53.178;5.846;2023-04-10T03:51:32;65.63;;;44.40;;
54679;SDS011;40578;53.178;5.846;2023-04-10T03:53:57;59.03;;;43.23;;
54679;SDS011;40578;53.178;5.846;2023-04-10T03:56:23;60.13;;;43.80;;
54679;SDS011;40578;53.178;5.846;2023-04-10T03:58:49;62.37;;;45.03;;
54679;SDS011;40578;53.178;5.846;2023-04-10T04:01:14;61.77;;;45.30;;
54679;SDS011;40578;53.178;5.846;2023-04-10T04:03:41;57.40;;;43.90;;
54679;SDS011;40578;53.178;5.846;2023-04-10T04:06:07;60.95;;;43.17;;
54679;SDS011;40578;53.178;5.846;2023-04-10T04:08:32;57.67;;;42.73;;
54679;SDS011;40578;53.178;5.846;2023-04-10T04:11:01;58.90;;;42.80;;
54679;SDS011;40578;53.178;5.846;2023-04-10T04:13:27;59.83;;;44.08;;
54679;SDS011;40578;53.178;5.846;2023-04-10T04:15:52;58.73;;;43.23;;
54679;SDS011;40578;53.178;5.846;2023-04-10T04:18:18;58.30;;;43.00;;
54679;SDS011;40578;53.178;5.846;2023-04-10T04:20:43;58.93;;;43.40;;
54679;SDS011;40578;53.178;5.846;2023-04-10T04:23:09;60.33;;;44.03;;
54679;SDS011;40578;53.178;5.846;2023-04-10T04:25:35;54.83;;;41.40;;
54679;SDS011;40578;53.178;5.846;2023-04-10T04:28:01;56.93;;;41.70;;
54679;SDS011;40578;53.178;5.846;2023-04-10T04:30:27;58.87;;;43.57;;
54679;SDS011;40578;53.178;5.846;2023-04-10T04:32:52;57.00;;;41.63;;
54679;SDS011;40578;53.178;5.846;2023-04-10T04:35:18;54.37;;;40.70;;
54679;SDS011;40578;53.178;5.846;2023-04-10T04:37:43;57.23;;;41.37;;
54679;SDS011;40578;53.178;5.846;2023-04-10T04:40:10;55.25;;;41.78;;
54679;SDS011;40578;53.178;5.846;2023-04-10T04:42:35;53.67;;;39.87;;
54679;SDS011;40578;53.178;5.846;2023-04-10T04:45:01;59.37;;;41.17;;
54679;SDS011;40578;53.178;5.846;2023-04-10T04:47:27;54.93;;;40.27;;
54679;SDS011;40578;53.178;5.846;2023-04-10T04:49:52;55.13;;;39.37;;
54679;SDS011;40578;53.178;5.846;2023-04-10T04:52:18;53.60;;;39.30;;
54679;SDS011;40578;53.178;5.846;2023-04-10T04:54:44;53.57;;;38.67;;
54679;SDS011;40578;53.178;5.846;2023-04-10T04:57:09;55.17;;;38.33;;
54679;SDS011;40578;53.178;5.846;2023-04-10T04:59:35;50.43;;;36.40;;
54679;SDS011;40578;53.178;5.846;2023-04-10T05:02:02;48.67;;;38.08;;
54679;SDS011;40578;53.178;5.846;2023-04-10T05:04:27;50.30;;;37.33;;
54679;SDS011;40578;53.178;5.846;2023-04-10T05:06:53;48.53;;;37.40;;
54679;SDS011;40578;53.178;5.846;2023-04-10T05:09:19;50.10;;;37.07;;
54679;SDS011;40578;53.178;5.846;2023-04-10T05:11:44;52.23;;;36.93;;
54679;SDS011;40578;53.178;5.846;2023-04-10T05:14:10;48.37;;;35.23;;
54679;SDS011;40578;53.178;5.846;2023-04-10T05:16:36;50.67;;;36.03;;
54679;SDS011;40578;53.178;5.846;2023-04-10T05:19:01;49.43;;;35.07;;
54679;SDS011;40578;53.178;5.846;2023-04-10T05:21:27;48.17;;;34.07;;
54679;SDS011;40578;53.178;5.846;2023-04-10T05:23:53;45.33;;;33.93;;
54679;SDS011;40578;53.178;5.846;2023-04-10T05:26:21;50.67;;;34.13;;
54679;SDS011;40578;53.178;5.846;2023-04-10T05:28:46;46.87;;;33.80;;
54679;SDS011;40578;53.178;5.846;2023-04-10T05:31:12;47.23;;;34.33;;
54679;SDS011;40578;53.178;5.846;2023-04-10T05:33:38;42.13;;;31.70;;
54679;SDS011;40578;53.178;5.846;2023-04-10T05:36:03;43.53;;;30.80;;
54679;SDS011;40578;53.178;5.846;2023-04-10T05:38:29;43.20;;;31.35;;
54679;SDS011;40578;53.178;5.846;2023-04-10T05:40:55;37.87;;;29.00;;
54679;SDS011;40578;53.178;5.846;2023-04-10T05:43:21;40.40;;;28.73;;
54679;SDS011;40578;53.178;5.846;2023-04-10T05:45:46;40.63;;;29.50;;
54679;SDS011;40578;53.178;5.846;2023-04-10T05:48:12;44.63;;;31.00;;
54679;SDS011;40578;53.178;5.846;2023-04-10T05:50:37;40.40;;;29.27;;
54679;SDS011;40578;53.178;5.846;2023-04-10T05:53:03;38.70;;;28.03;;
54679;SDS011;40578;53.178;5.846;2023-04-10T05:55:32;40.00;;;28.10;;
54679;SDS011;40578;53.178;5.846;2023-04-10T05:57:57;38.83;;;27.88;;
54679;SDS011;40578;53.178;5.846;2023-04-10T06:00:23;39.53;;;26.93;;
54679;SDS011;40578;53.178;5.846;2023-04-10T06:02:49;37.20;;;26.60;;
54679;SDS011;40578;53.178;5.846;2023-04-10T06:05:15;34.60;;;24.53;;
54679;SDS011;40578;53.178;5.846;2023-04-10T06:07:41;36.50;;;25.93;;
54679;SDS011;40578;53.178;5.846;2023-04-10T06:10:09;34.15;;;25.48;;
54679;SDS011;40578;53.178;5.846;2023-04-10T06:12:36;37.97;;;25.90;;
54679;SDS011;40578;53.178;5.846;2023-04-10T06:15:01;129.45;;;34.05;;
54679;SDS011;40578;53.178;5.846;2023-04-10T06:17:27;38.70;;;24.53;;
54679;SDS011;40578;53.178;5.846;2023-04-10T06:19:52;32.83;;;23.27;;
54679;SDS011;40578;53.178;5.846;2023-04-10T06:22:18;33.57;;;24.13;;
54679;SDS011;40578;53.178;5.846;2023-04-10T06:27:10;34.85;;;23.52;;
54679;SDS011;40578;53.178;5.846;2023-04-10T06:29:36;33.07;;;22.63;;
54679;SDS011;40578;53.178;5.846;2023-04-10T06:32:02;30.67;;;22.53;;
54679;SDS011;40578;53.178;5.846;2023-04-10T06:34:28;30.63;;;21.93;;
54679;SDS011;40578;53.178;5.846;2023-04-10T06:36:53;29.87;;;22.00;;
54679;SDS011;40578;53.178;5.846;2023-04-10T06:39:19;32.53;;;22.23;;
54679;SDS011;40578;53.178;5.846;2023-04-10T06:41:44;30.13;;;20.30;;
54679;SDS011;40578;53.178;5.846;2023-04-10T06:44:10;30.37;;;20.90;;
54679;SDS011;40578;53.178;5.846;2023-04-10T06:46:36;30.37;;;21.17;;
54679;SDS011;40578;53.178;5.846;2023-04-10T06:49:01;32.80;;;21.10;;
54679;SDS011;40578;53.178;5.846;2023-04-10T06:51:27;29.93;;;21.07;;
54679;SDS011;40578;53.178;5.846;2023-04-10T06:53:53;31.43;;;21.43;;
54679;SDS011;40578;53.178;5.846;2023-04-10T06:56:18;28.27;;;20.30;;
54679;SDS011;40578;53.178;5.846;2023-04-10T06:58:45;31.25;;;21.27;;
54679;SDS011;40578;53.178;5.846;2023-04-10T07:01:10;29.10;;;20.10;;
54679;SDS011;40578;53.178;5.846;2023-04-10T07:03:36;27.07;;;19.87;;
54679;SDS011;40578;53.178;5.846;2023-04-10T07:06:02;29.85;;;21.77;;
54679;SDS011;40578;53.178;5.846;2023-04-10T07:08:28;29.60;;;20.87;;
54679;SDS011;40578;53.178;5.846;2023-04-10T07:10:54;28.30;;;20.23;;
54679;SDS011;40578;53.178;5.846;2023-04-10T07:13:21;27.63;;;19.17;;
54679;SDS011;40578;53.178;5.846;2023-04-10T07:15:46;25.50;;;19.90;;
54679;SDS011;40578;53.178;5.846;2023-04-10T07:18:12;24.67;;;17.80;;
54679;SDS011;40578;53.178;5.846;2023-04-10T07:20:37;26.37;;;18.27;;
54679;SDS011;40578;53.178;5.846;2023-04-10T07:23:03;25.17;;;18.30;;
54679;SDS011;40578;53.178;5.846;2023-04-10T07:25:29;25.73;;;17.60;;
54679;SDS011;40578;53.178;5.846;2023-04-10T07:27:54;25.73;;;17.10;;
54679;SDS011;40578;53.178;5.846;2023-04-10T07:30:20;24.07;;;17.47;;
54679;SDS011;40578;53.178;5.846;2023-04-10T07:32:46;31.50;;;17.20;;
54679;SDS011;40578;53.178;5.846;2023-04-10T07:35:11;24.10;;;17.20;;
54679;SDS011;40578;53.178;5.846;2023-04-10T07:37:37;24.43;;;17.33;;
54679;SDS011;40578;53.178;5.846;2023-04-10T07:40:04;21.40;;;15.65;;
54679;SDS011;40578;53.178;5.846;2023-04-10T07:42:31;23.35;;;16.27;;
54679;SDS011;40578;53.178;5.846;2023-04-10T07:44:56;20.73;;;15.90;;
54679;SDS011;40578;53.178;5.846;2023-04-10T07:47:22;22.90;;;16.53;;
54679;SDS011;40578;53.178;5.846;2023-04-10T07:49:48;21.90;;;16.37;;
54679;SDS011;40578;53.178;5.846;2023-04-10T07:52:13;21.33;;;16.27;;
54679;SDS011;40578;53.178;5.846;2023-04-10T07:54:39;21.17;;;15.20;;
54679;SDS011;40578;53.178;5.846;2023-04-10T07:57:05;20.07;;;15.03;;
54679;SDS011;40578;53.178;5.846;2023-04-10T07:59:30;21.90;;;15.47;;
54679;SDS011;40578;53.178;5.846;2023-04-10T08:01:56;23.33;;;17.00;;
54679;SDS011;40578;53.178;5.846;2023-04-10T08:04:21;21.43;;;15.70;;
54679;SDS011;40578;53.178;5.846;2023-04-10T08:06:47;23.20;;;15.43;;
54679;SDS011;40578;53.178;5.846;2023-04-10T08:09:14;20.65;;;14.85;;
54679;SDS011;40578;53.178;5.846;2023-04-10T08:11:39;21.73;;;15.00;;
54679;SDS011;40578;53.178;5.846;2023-04-10T08:14:05;20.47;;;14.43;;
54679;SDS011;40578;53.178;5.846;2023-04-10T08:16:31;22.90;;;15.83;;
54679;SDS011;40578;53.178;5.846;2023-04-10T08:18:59;21.35;;;14.70;;
54679;SDS011;40578;53.178;5.846;2023-04-10T08:21:26;18.10;;;14.20;;
54679;SDS011;40578;53.178;5.846;2023-04-10T08:26:18;23.10;;;14.40;;
54679;SDS011;40578;53.178;5.846;2023-04-10T08:28:48;19.88;;;14.85;;
54679;SDS011;40578;53.178;5.846;2023-04-10T08:31:18;20.35;;;14.43;;
54679;SDS011;40578;53.178;5.846;2023-04-10T08:33:45;19.00;;;13.95;;
54679;SDS011;40578;53.178;5.846;2023-04-10T08:36:11;225.23;;;29.23;;
54679;SDS011;40578;53.178;5.846;2023-04-10T08:38:40;22.08;;;15.13;;
54679;SDS011;40578;53.178;5.846;2023-04-10T08:41:08;18.90;;;14.23;;
54679;SDS011;40578;53.178;5.846;2023-04-10T08:43:35;19.65;;;14.15;;
54679;SDS011;40578;53.178;5.846;2023-04-10T08:46:00;19.47;;;14.37;;
54679;SDS011;40578;53.178;5.846;2023-04-10T08:48:30;20.75;;;14.38;;
54679;SDS011;40578;53.178;5.846;2023-04-10T08:51:00;20.90;;;15.13;;
54679;SDS011;40578;53.178;5.846;2023-04-10T08:53:28;19.73;;;14.65;;
54679;SDS011;40578;53.178;5.846;2023-04-10T08:55:56;19.75;;;13.73;;
54679;SDS011;40578;53.178;5.846;2023-04-10T08:58:23;17.10;;;13.10;;
54679;SDS011;40578;53.178;5.846;2023-04-10T09:03:15;21.30;;;13.93;;
54679;SDS011;40578;53.178;5.846;2023-04-10T09:05:41;17.60;;;13.88;;
54679;SDS011;40578;53.178;5.846;2023-04-10T09:08:07;18.17;;;13.00;;
54679;SDS011;40578;53.178;5.846;2023-04-10T09:13:00;17.27;;;12.82;;
54679;SDS011;40578;53.178;5.846;2023-04-10T09:15:25;16.67;;;12.70;;
54679;SDS011;40578;53.178;5.846;2023-04-10T09:20:30;17.27;;;13.30;;
54679;SDS011;40578;53.178;5.846;2023-04-10T09:22:56;221.65;;;31.58;;
54679;SDS011;40578;53.178;5.846;2023-04-10T09:28:00;17.83;;;13.45;;
54679;SDS011;40578;53.178;5.846;2023-04-10T09:30:32;17.77;;;13.85;;
54679;SDS011;40578;53.178;5.846;2023-04-10T09:32:59;18.00;;;13.73;;
54679;SDS011;40578;53.178;5.846;2023-04-10T09:35:33;18.07;;;13.73;;
54679;SDS011;40578;53.178;5.846;2023-04-10T09:38:00;16.95;;;13.02;;
54679;SDS011;40578;53.178;5.846;2023-04-10T09:40:37;17.45;;;13.73;;
54679;SDS011;40578;53.178;5.846;2023-04-10T09:43:15;17.27;;;12.93;;
54679;SDS011;40578;53.178;5.846;2023-04-10T09:45:53;17.05;;;12.75;;
54679;SDS011;40578;53.178;5.846;2023-04-10T09:48:21;15.50;;;12.10;;
54679;SDS011;40578;53.178;5.846;2023-04-10T09:50:48;18.55;;;12.77;;
54679;SDS011;40578;53.178;5.846;2023-04-10T09:53:14;18.50;;;13.70;;
54679;SDS011;40578;53.178;5.846;2023-04-10T09:55:41;16.63;;;12.80;;
54679;SDS011;40578;53.178;5.846;2023-04-10T09:58:07;17.83;;;12.60;;
54679;SDS011;40578;53.178;5.846;2023-04-10T10:00:52;16.67;;;13.00;;
54679;SDS011;40578;53.178;5.846;2023-04-10T10:03:18;15.30;;;11.60;;
54679;SDS011;40578;53.178;5.846;2023-04-10T10:05:48;15.30;;;12.48;;
54679;SDS011;40578;53.178;5.846;2023-04-10T10:08:15;19.33;;;12.88;;
54679;SDS011;40578;53.178;5.846;2023-04-10T10:10:51;19.38;;;11.40;;
54679;SDS011;40578;53.178;5.846;2023-04-10T10:13:22;15.75;;;11.73;;
54679;SDS011;40578;53.178;5.846;2023-04-10T10:15:57;58.53;;;17.02;;
54679;SDS011;40578;53.178;5.846;2023-04-10T10:21:17;16.25;;;11.63;;
54679;SDS011;40578;53.178;5.846;2023-04-10T10:23:45;16.05;;;12.77;;
54679;SDS011;40578;53.178;5.846;2023-04-10T10:26:12;16.27;;;12.00;;
54679;SDS011;40578;53.178;5.846;2023-04-10T10:31:05;16.15;;;12.32;;
54679;SDS011;40578;53.178;5.846;2023-04-10T10:33:32;13.98;;;11.27;;
54679;SDS011;40578;53.178;5.846;2023-04-10T10:36:01;13.80;;;11.10;;
54679;SDS011;40578;53.178;5.846;2023-04-10T10:38:28;14.68;;;11.30;;
54679;SDS011;40578;53.178;5.846;2023-04-10T10:48:55;23.65;;;13.05;;
54679;SDS011;40578;53.178;5.846;2023-04-10T10:51:22;15.57;;;12.05;;
54679;SDS011;40578;53.178;5.846;2023-04-10T10:53:47;15.17;;;11.80;;
54679;SDS011;40578;53.178;5.846;2023-04-10T10:58:45;15.90;;;11.80;;
54679;SDS011;40578;53.178;5.846;2023-04-10T11:01:12;15.23;;;12.07;;
54679;SDS011;40578;53.178;5.846;2023-04-10T11:03:37;17.08;;;11.63;;
54679;SDS011;40578;53.178;5.846;2023-04-10T11:06:05;22.23;;;13.07;;
54679;SDS011;40578;53.178;5.846;2023-04-10T11:13:25;25.52;;;13.80;;
54679;SDS011;40578;53.178;5.846;2023-04-10T11:15:51;21.13;;;12.10;;
54679;SDS011;40578;53.178;5.846;2023-04-10T11:18:16;17.97;;;11.80;;
54679;SDS011;40578;53.178;5.846;2023-04-10T11:21:07;21.73;;;13.50;;
54679;SDS011;40578;53.178;5.846;2023-04-10T11:23:34;15.77;;;11.90;;
54679;SDS011;40578;53.178;5.846;2023-04-10T11:26:00;19.50;;;13.27;;
54679;SDS011;40578;53.178;5.846;2023-04-10T11:31:14;18.23;;;13.02;;
54679;SDS011;40578;53.178;5.846;2023-04-10T11:33:46;21.60;;;13.43;;
54679;SDS011;40578;53.178;5.846;2023-04-10T11:36:31;23.67;;;13.20;;
54679;SDS011;40578;53.178;5.846;2023-04-10T11:38:59;18.05;;;12.63;;
54679;SDS011;40578;53.178;5.846;2023-04-10T11:41:25;14.57;;;11.32;;
54679;SDS011;40578;53.178;5.846;2023-04-10T11:43:52;16.58;;;11.60;;
54679;SDS011;40578;53.178;5.846;2023-04-10T11:46:18;17.70;;;11.07;;
54679;SDS011;40578;53.178;5.846;2023-04-10T11:48:44;13.95;;;10.55;;
54679;SDS011;40578;53.178;5.846;2023-04-10T11:51:11;14.80;;;10.57;;
54679;SDS011;40578;53.178;5.846;2023-04-10T11:53:38;13.25;;;10.68;;
54679;SDS011;40578;53.178;5.846;2023-04-10T11:56:13;13.88;;;10.25;;
54679;SDS011;40578;53.178;5.846;2023-04-10T11:58:39;13.02;;;9.63;;
54679;SDS011;40578;53.178;5.846;2023-04-10T12:01:05;13.60;;;10.17;;
54679;SDS011;40578;53.178;5.846;2023-04-10T12:03:41;14.85;;;10.27;;
54679;SDS011;40578;53.178;5.846;2023-04-10T12:06:11;12.75;;;9.65;;
54679;SDS011;40578;53.178;5.846;2023-04-10T12:08:43;13.75;;;9.13;;
54679;SDS011;40578;53.178;5.846;2023-04-10T12:11:19;12.52;;;9.90;;
54679;SDS011;40578;53.178;5.846;2023-04-10T12:13:47;13.52;;;9.50;;
54679;SDS011;40578;53.178;5.846;2023-04-10T12:16:15;12.63;;;9.50;;
54679;SDS011;40578;53.178;5.846;2023-04-10T12:18:41;12.52;;;9.90;;
54679;SDS011;40578;53.178;5.846;2023-04-10T12:21:08;11.93;;;9.15;;
54679;SDS011;40578;53.178;5.846;2023-04-10T12:23:35;12.60;;;9.67;;
54679;SDS011;40578;53.178;5.846;2023-04-10T12:26:16;12.70;;;9.77;;
54679;SDS011;40578;53.178;5.846;2023-04-10T12:28:50;11.70;;;9.68;;
54679;SDS011;40578;53.178;5.846;2023-04-10T12:31:17;11.68;;;10.00;;
54679;SDS011;40578;53.178;5.846;2023-04-10T12:33:45;10.43;;;8.70;;
54679;SDS011;40578;53.178;5.846;2023-04-10T12:36:20;12.05;;;9.60;;
54679;SDS011;40578;53.178;5.846;2023-04-10T12:38:46;11.07;;;9.00;;
54679;SDS011;40578;53.178;5.846;2023-04-10T12:41:12;11.43;;;8.83;;
54679;SDS011;40578;53.178;5.846;2023-04-10T12:43:39;11.77;;;9.63;;
54679;SDS011;40578;53.178;5.846;2023-04-10T12:46:06;11.82;;;9.32;;
54679;SDS011;40578;53.178;5.846;2023-04-10T12:48:46;12.38;;;9.93;;
54679;SDS011;40578;53.178;5.846;2023-04-10T12:51:11;11.67;;;10.00;;
54679;SDS011;40578;53.178;5.846;2023-04-10T12:53:46;12.33;;;9.43;;
54679;SDS011;40578;53.178;5.846;2023-04-10T12:56:12;12.57;;;9.80;;
54679;SDS011;40578;53.178;5.846;2023-04-10T12:58:38;11.65;;;9.27;;
54679;SDS011;40578;53.178;5.846;2023-04-10T13:01:07;15.00;;;9.10;;
54679;SDS011;40578;53.178;5.846;2023-04-10T13:03:38;16.08;;;9.55;;
54679;SDS011;40578;53.178;5.846;2023-04-10T13:06:04;13.47;;;9.37;;
54679;SDS011;40578;53.178;5.846;2023-04-10T13:08:31;13.55;;;9.30;;
54679;SDS011;40578;53.178;5.846;2023-04-10T13:10:57;13.57;;;10.15;;
54679;SDS011;40578;53.178;5.846;2023-04-10T13:13:30;12.88;;;9.90;;
54679;SDS011;40578;53.178;5.846;2023-04-10T13:15:57;11.20;;;9.25;;
54679;SDS011;40578;53.178;5.846;2023-04-10T13:18:23;14.23;;;10.20;;
54679;SDS011;40578;53.178;5.846;2023-04-10T13:20:49;11.63;;;8.97;;
54679;SDS011;40578;53.178;5.846;2023-04-10T13:23:15;16.05;;;9.73;;
54679;SDS011;40578;53.178;5.846;2023-04-10T13:25:41;12.77;;;9.70;;
54679;SDS011;40578;53.178;5.846;2023-04-10T13:28:07;11.50;;;9.23;;
54679;SDS011;40578;53.178;5.846;2023-04-10T13:30:39;14.02;;;10.52;;
54679;SDS011;40578;53.178;5.846;2023-04-10T13:33:06;12.38;;;10.15;;
54679;SDS011;40578;53.178;5.846;2023-04-10T13:35:32;12.52;;;9.88;;
54679;SDS011;40578;53.178;5.846;2023-04-10T13:37:59;12.27;;;9.73;;
54679;SDS011;40578;53.178;5.846;2023-04-10T13:42:50;12.18;;;9.23;;
54679;SDS011;40578;53.178;5.846;2023-04-10T13:45:16;12.10;;;10.00;;
54679;SDS011;40578;53.178;5.846;2023-04-10T13:47:42;13.43;;;9.50;;
54679;SDS011;40578;53.178;5.846;2023-04-10T13:50:07;11.77;;;10.02;;
54679;SDS011;40578;53.178;5.846;2023-04-10T13:52:33;14.00;;;10.68;;
54679;SDS011;40578;53.178;5.846;2023-04-10T13:54:59;11.20;;;9.27;;
54679;SDS011;40578;53.178;5.846;2023-04-10T13:57:25;13.20;;;10.17;;
54679;SDS011;40578;53.178;5.846;2023-04-10T13:59:50;12.37;;;10.13;;
54679;SDS011;40578;53.178;5.846;2023-04-10T14:02:16;13.63;;;10.27;;
54679;SDS011;40578;53.178;5.846;2023-04-10T14:04:41;15.00;;;10.67;;
54679;SDS011;40578;53.178;5.846;2023-04-10T14:07:10;12.65;;;10.50;;
54679;SDS011;40578;53.178;5.846;2023-04-10T14:09:35;15.97;;;10.77;;
54679;SDS011;40578;53.178;5.846;2023-04-10T14:12:01;14.40;;;11.43;;
54679;SDS011;40578;53.178;5.846;2023-04-10T14:14:27;12.90;;;10.67;;
54679;SDS011;40578;53.178;5.846;2023-04-10T14:16:53;16.27;;;11.17;;
54679;SDS011;40578;53.178;5.846;2023-04-10T14:19:18;16.80;;;12.07;;
54679;SDS011;40578;53.178;5.846;2023-04-10T14:21:44;15.73;;;10.97;;
54679;SDS011;40578;53.178;5.846;2023-04-10T14:24:10;14.53;;;10.70;;
54679;SDS011;40578;53.178;5.846;2023-04-10T14:26:36;15.13;;;11.37;;
54679;SDS011;40578;53.178;5.846;2023-04-10T14:29:01;14.63;;;11.57;;
54679;SDS011;40578;53.178;5.846;2023-04-10T14:31:27;13.38;;;10.63;;
54679;SDS011;40578;53.178;5.846;2023-04-10T14:33:53;15.17;;;11.83;;
54679;SDS011;40578;53.178;5.846;2023-04-10T14:36:18;14.10;;;10.87;;
54679;SDS011;40578;53.178;5.846;2023-04-10T14:38:44;15.97;;;11.93;;
54679;SDS011;40578;53.178;5.846;2023-04-10T14:41:10;16.50;;;12.63;;
54679;SDS011;40578;53.178;5.846;2023-04-10T14:43:35;17.73;;;12.07;;
54679;SDS011;40578;53.178;5.846;2023-04-10T14:46:01;17.85;;;11.20;;
54679;SDS011;40578;53.178;5.846;2023-04-10T14:48:27;15.73;;;10.53;;
54679;SDS011;40578;53.178;5.846;2023-04-10T14:53:22;13.13;;;8.73;;
54679;SDS011;40578;53.178;5.846;2023-04-10T14:55:48;10.73;;;8.93;;
54679;SDS011;40578;53.178;5.846;2023-04-10T14:58:14;10.83;;;9.00;;
54679;SDS011;40578;53.178;5.846;2023-04-10T15:00:40;9.93;;;8.03;;
54679;SDS011;40578;53.178;5.846;2023-04-10T15:03:07;11.20;;;9.05;;
54679;SDS011;40578;53.178;5.846;2023-04-10T15:05:33;11.23;;;8.70;;
54679;SDS011;40578;53.178;5.846;2023-04-10T15:07:58;11.43;;;8.50;;
54679;SDS011;40578;53.178;5.846;2023-04-10T15:10:24;12.97;;;8.40;;
54679;SDS011;40578;53.178;5.846;2023-04-10T15:12:50;12.23;;;8.00;;
54679;SDS011;40578;53.178;5.846;2023-04-10T15:15:16;10.17;;;7.63;;
54679;SDS011;40578;53.178;5.846;2023-04-10T15:17:42;9.57;;;7.30;;
54679;SDS011;40578;53.178;5.846;2023-04-10T15:20:07;10.20;;;6.73;;
54679;SDS011;40578;53.178;5.846;2023-04-10T15:22:33;12.45;;;7.22;;